Seago Piraeus — OXVD2 — position and weather

sailwx.info

Track history (hours):
 
Tides and Currents Weather Stations Pressure Air Temp Water Temp Dewpoint Dewpoint Depression Visibility Wind Speed Wind Dir Waves Ship Positions

Seago Piraeus

Last reported at 2014-Aug-20 19:26 UTC. Time now 2014-Aug-21 02:28 UTC.
Position N 40°57' E 028°41'.

Length 294 m; draft 11.3 m.

Type: Ship (hazmat cat A). MMSI: 219117000.

Date/timePositionNaut miles runAvg speedWind from/ knotsBaromVisibWave heightAir tempDewpointWater temp
2014-Aug-20 19:26N 40°57' E 028°41'4 4.5
2014-Aug-20 18:33N 40°53' E 028°41'6 6.1
2014-Aug-20 17:33N 40°47' E 028°40'2 2.3
2014-Aug-20 16:32N 40°45' E 028°43'1 0.7
2014-Aug-20 15:18N 40°45' E 028°43'1 1.0
2014-Aug-20 14:32N 40°45' E 028°43'1 1.1
2014-Aug-20 13:33N 40°46' E 028°42'1 0.7
2014-Aug-20 12:34N 40°47' E 028°42'4 4.0
2014-Aug-20 11:33N 40°43' E 028°44'1 1.0
2014-Aug-20 10:33N 40°42' E 028°45'1 0.8
2014-Aug-20 09:31N 40°43' E 028°45'2 2.4
2014-Aug-20 08:32N 40°42' E 028°42'1 0.6
2014-Aug-20 07:31N 40°41' E 028°43'1 1.1
2014-Aug-20 06:23N 40°42' E 028°43'1 1.1
2014-Aug-20 05:32N 40°43' E 028°44'1 1.1
2014-Aug-20 04:32N 40°44' E 028°45'1 1.1
2014-Aug-20 03:33N 40°44' E 028°46'1010.0
2014-Aug-20 02:34N 40°44' E 028°60'1313.3
2014-Aug-20 01:34N 40°44' E 029°17'10 9.6
2014-Aug-20 00:33N 40°45' E 029°30'8 7.9
2014-Aug-19 23:31N 40°45' E 029°41'2 2.1
2014-Aug-19 22:34N 40°46' E 029°43'0 0.0
2014-Aug-19 21:33N 40°46' E 029°43'0 0.0
2014-Aug-19 20:09N 40°46' E 029°43'0 0.0
2014-Aug-19 19:03N 40°46' E 029°43'0 0.0
2014-Aug-19 18:33N 40°46' E 029°43'0 0.0
2014-Aug-19 17:33N 40°46' E 029°43'0 0.0
2014-Aug-19 16:33N 40°46' E 029°43'0 0.0
2014-Aug-19 15:33N 40°46' E 029°43'0 0.0
2014-Aug-19 14:03N 40°46' E 029°43'0 0.0
2014-Aug-19 12:27N 40°46' E 029°43'0 0.0
2014-Aug-19 11:15N 40°46' E 029°43'0 0.0
2014-Aug-19 10:21N 40°46' E 029°43'0 0.0
2014-Aug-19 09:27N 40°46' E 029°43'0 0.0
2014-Aug-19 07:21N 40°46' E 029°43'0 0.0
2014-Aug-19 06:21N 40°46' E 029°43'0 0.0
2014-Aug-19 05:33N 40°46' E 029°43'0 0.0
2014-Aug-19 04:33N 40°46' E 029°43'0 0.0
2014-Aug-19 03:21N 40°46' E 029°43'0 0.0
2014-Aug-19 02:21N 40°46' E 029°43'0 0.0
2014-Aug-19 01:33N 40°46' E 029°43'3 3.1
2014-Aug-19 00:33N 40°45' E 029°39'8 7.9
2014-Aug-18 23:31N 40°45' E 029°28'9 9.0
2014-Aug-18 22:32N 40°46' E 029°17'6 6.0
2014-Aug-18 21:33N 40°49' E 029°10'0 0.3
2014-Aug-18 20:33N 40°49' E 029°10'0 0.4
2014-Aug-18 19:33N 40°48' E 029°11'0 0.2
2014-Aug-18 18:33N 40°48' E 029°10'0 0.1
2014-Aug-18 17:33N 40°48' E 029°10'0 0.1
2014-Aug-18 16:33N 40°48' E 029°10'0 0.3
2014-Aug-18 15:33N 40°49' E 029°11'0 0.4
2014-Aug-18 14:33N 40°49' E 029°11'5 5.2
2014-Aug-18 13:33N 40°45' E 029°06'1212.2
2014-Aug-18 12:33N 40°44' E 028°50'260 9.5
2014-Aug-17 09:12N 37°55' E 024°34'913.1
2014-Aug-17 08:31N 37°49' E 024°25'1713.0
2014-Aug-17 07:11N 37°37' E 024°09'711.9
2014-Aug-17 06:33N 37°36' E 023°60'1313.0
2014-Aug-17 05:32N 37°38' E 023°44'1312.8
2014-Aug-17 04:33N 37°50' E 023°37'7 7.4
2014-Aug-17 03:33N 37°57' E 023°36'0 0.0
2014-Aug-17 02:33N 37°57' E 023°36'0 0.0
2014-Aug-17 01:33N 37°57' E 023°36'0 0.0
2014-Aug-17 00:33N 37°57' E 023°36'0 0.0
2014-Aug-16 23:33N 37°57' E 023°36'0 0.0
2014-Aug-16 22:33N 37°57' E 023°36'0 0.0
2014-Aug-16 21:33N 37°57' E 023°36'3 2.7
2014-Aug-16 20:33N 37°55' E 023°37'1 1.1
2014-Aug-16 19:33N 37°55' E 023°36'2 2.2
2014-Aug-16 18:33N 37°54' E 023°38'7 6.6
2014-Aug-16 17:33N 37°48' E 023°41'7 7.1
2014-Aug-16 16:33N 37°41' E 023°45'7 7.2
2014-Aug-16 15:33N 37°34' E 023°44'8 8.3
2014-Aug-16 14:33N 37°26' E 023°42'1413.7
2014-Aug-16 13:33N 37°13' E 023°38'1413.9
2014-Aug-16 12:33N 36°59' E 023°34'1414.1
2014-Aug-16 11:33N 36°46' E 023°29'1414.1
2014-Aug-16 10:33N 36°32' E 023°23'1313.1
2014-Aug-16 09:33N 36°22' E 023°13'1413.8
2014-Aug-16 08:32N 36°24' E 022°56'38214.2
2014-Aug-15 05:33N 36°29' E 015°01'1514.1
2014-Aug-15 04:29N 36°29' E 014°42'1314.2
2014-Aug-15 03:34N 36°33' E 014°26'1414.3
2014-Aug-15 02:33N 36°37' E 014°09'1414.0
2014-Aug-15 01:33N 36°41' E 013°52'1413.9
2014-Aug-15 00:34N 36°44' E 013°35'1414.2
2014-Aug-14 23:34N 36°48' E 013°18'1414.2
2014-Aug-14 22:34N 36°53' E 013°01'1414.3
2014-Aug-14 21:34N 36°57' E 012°45'1414.0
2014-Aug-14 20:34N 37°00' E 012°27'4214.1
2014-Aug-14 17:33N 37°13' E 011°37'1414.1
2014-Aug-14 16:33N 37°19' E 011°21'1514.2
2014-Aug-14 15:31N 37°24' E 011°03'1614.4
2014-Aug-14 14:23N 37°28' E 010°44'1214.1
2014-Aug-14 13:33N 37°31' E 010°29'6015.1
2014-Aug-14 09:33N 37°45' E 009°15'1615.1
2014-Aug-14 08:30N 37°49' E 008°56'1414.8
2014-Aug-14 07:33N 37°52' E 008°38'1714.5
2014-Aug-14 06:23N 37°56' E 008°18'22614.0
2014-Aug-13 14:12N 38°49' E 003°37'914.6
2014-Aug-13 13:33N 38°52' E 003°25'1414.6
2014-Aug-13 12:33N 38°55' E 003°07'1414.3
2014-Aug-13 11:33N 38°58' E 002°49'1414.2
2014-Aug-13 10:33N 39°01' E 002°31'1414.4
2014-Aug-13 09:33N 39°05' E 002°13'1414.4
2014-Aug-13 08:33N 39°08' E 001°55'2014.5
2014-Aug-13 07:09N 39°13' E 001°29'7114.4
2014-Aug-13 02:14N 39°24' W 000°01'1014.1
2014-Aug-13 01:34N 39°25' W 000°13'5 4.6
2014-Aug-13 00:33N 39°26' W 000°19'0 0.0
2014-Aug-12 23:33N 39°26' W 000°19'0 0.0
2014-Aug-12 22:34N 39°26' W 000°19'0 0.0
2014-Aug-12 21:34N 39°26' W 000°19'0 0.0
2014-Aug-12 20:34N 39°26' W 000°19'0 0.0
2014-Aug-12 19:33N 39°26' W 000°19'0 0.0
2014-Aug-12 18:33N 39°26' W 000°19'0 0.0
2014-Aug-12 17:33N 39°26' W 000°19'0 0.0
2014-Aug-12 16:33N 39°26' W 000°19'0 0.0
2014-Aug-12 15:33N 39°26' W 000°19'0 0.0
2014-Aug-12 14:14N 39°26' W 000°19'0 0.0
2014-Aug-12 13:33N 39°26' W 000°19'0 0.0
2014-Aug-12 12:33N 39°26' W 000°19'0 0.0
2014-Aug-12 11:33N 39°26' W 000°19'2 1.6
2014-Aug-12 10:33N 39°25' W 000°17'4513.5
2014-Aug-12 07:15N 38°51' E 000°20'2011.1
2014-Aug-12 05:26N 38°31' E 000°19'2513.1
2014-Aug-12 03:33N 38°11' E 000°01'1414.0
2014-Aug-12 02:32N 37°59' W 000°09'1414.0
2014-Aug-12 01:31N 37°47' W 000°19'1314.0
2014-Aug-12 00:33N 37°36' W 000°29'1414.2
2014-Aug-11 23:33N 37°26' W 000°41'1414.4
2014-Aug-11 22:33N 37°16' W 000°54'1514.7
2014-Aug-11 21:34N 37°06' W 001°07'1514.9
2014-Aug-11 20:33N 36°56' W 001°21'1514.7
2014-Aug-11 19:32N 36°46' W 001°35'1515.1
2014-Aug-11 18:33N 36°36' W 001°49'1515.2
2014-Aug-11 17:32N 36°26' W 002°04'16516.3
2014-Aug-11 07:26N 35°58' W 005°25'16416.0
2014-Aug-10 21:12N 36°27' W 008°45'1016.2
2014-Aug-10 20:33N 36°30' W 008°57'1616.3
2014-Aug-10 19:33N 36°35' W 009°17'  
Track history (hours):
 
Tides and Currents Weather Stations Pressure Air Temp Water Temp Dewpoint Dewpoint Depression Visibility Wind Speed Wind Dir Waves Ship Positions

Seago Piraeus

Last reported at 2014-Aug-20 19:26 UTC. Time now 2014-Aug-21 02:28 UTC.
Position N 40°57' E 028°41'.

Length 294 m; draft 11.3 m.

Type: Ship (hazmat cat A). MMSI: 219117000.

Date/timePositionNaut miles runAvg speedWind from/ knotsBaromVisibWave heightAir tempDewpointWater temp
2014-Aug-20 19:26N 40°57' E 028°41'4 4.5
2014-Aug-20 18:33N 40°53' E 028°41'6 6.1
2014-Aug-20 17:33N 40°47' E 028°40'2 2.3
2014-Aug-20 16:32N 40°45' E 028°43'1 0.7
2014-Aug-20 15:18N 40°45' E 028°43'1 1.0
2014-Aug-20 14:32N 40°45' E 028°43'1 1.1
2014-Aug-20 13:33N 40°46' E 028°42'1 0.7
2014-Aug-20 12:34N 40°47' E 028°42'4 4.0
2014-Aug-20 11:33N 40°43' E 028°44'1 1.0
2014-Aug-20 10:33N 40°42' E 028°45'1 0.8
2014-Aug-20 09:31N 40°43' E 028°45'2 2.4
2014-Aug-20 08:32N 40°42' E 028°42'1 0.6
2014-Aug-20 07:31N 40°41' E 028°43'1 1.1
2014-Aug-20 06:23N 40°42' E 028°43'1 1.1
2014-Aug-20 05:32N 40°43' E 028°44'1 1.1
2014-Aug-20 04:32N 40°44' E 028°45'1 1.1
2014-Aug-20 03:33N 40°44' E 028°46'1010.0
2014-Aug-20 02:34N 40°44' E 028°60'1313.3
2014-Aug-20 01:34N 40°44' E 029°17'10 9.6
2014-Aug-20 00:33N 40°45' E 029°30'8 7.9
2014-Aug-19 23:31N 40°45' E 029°41'2 2.1
2014-Aug-19 22:34N 40°46' E 029°43'0 0.0
2014-Aug-19 21:33N 40°46' E 029°43'0 0.0
2014-Aug-19 20:09N 40°46' E 029°43'0 0.0
2014-Aug-19 19:03N 40°46' E 029°43'0 0.0
2014-Aug-19 18:33N 40°46' E 029°43'0 0.0
2014-Aug-19 17:33N 40°46' E 029°43'0 0.0
2014-Aug-19 16:33N 40°46' E 029°43'0 0.0
2014-Aug-19 15:33N 40°46' E 029°43'0 0.0
2014-Aug-19 14:03N 40°46' E 029°43'0 0.0
2014-Aug-19 12:27N 40°46' E 029°43'0 0.0
2014-Aug-19 11:15N 40°46' E 029°43'0 0.0
2014-Aug-19 10:21N 40°46' E 029°43'0 0.0
2014-Aug-19 09:27N 40°46' E 029°43'0 0.0
2014-Aug-19 07:21N 40°46' E 029°43'0 0.0
2014-Aug-19 06:21N 40°46' E 029°43'0 0.0
2014-Aug-19 05:33N 40°46' E 029°43'0 0.0
2014-Aug-19 04:33N 40°46' E 029°43'0 0.0
2014-Aug-19 03:21N 40°46' E 029°43'0 0.0
2014-Aug-19 02:21N 40°46' E 029°43'0 0.0
2014-Aug-19 01:33N 40°46' E 029°43'3 3.1
2014-Aug-19 00:33N 40°45' E 029°39'8 7.9
2014-Aug-18 23:31N 40°45' E 029°28'9 9.0
2014-Aug-18 22:32N 40°46' E 029°17'6 6.0
2014-Aug-18 21:33N 40°49' E 029°10'0 0.3
2014-Aug-18 20:33N 40°49' E 029°10'0 0.4
2014-Aug-18 19:33N 40°48' E 029°11'0 0.2
2014-Aug-18 18:33N 40°48' E 029°10'0 0.1
2014-Aug-18 17:33N 40°48' E 029°10'0 0.1
2014-Aug-18 16:33N 40°48' E 029°10'0 0.3
2014-Aug-18 15:33N 40°49' E 029°11'0 0.4
2014-Aug-18 14:33N 40°49' E 029°11'5 5.2
2014-Aug-18 13:33N 40°45' E 029°06'1212.2
2014-Aug-18 12:33N 40°44' E 028°50'260 9.5
2014-Aug-17 09:12N 37°55' E 024°34'913.1
2014-Aug-17 08:31N 37°49' E 024°25'1713.0
2014-Aug-17 07:11N 37°37' E 024°09'711.9
2014-Aug-17 06:33N 37°36' E 023°60'1313.0
2014-Aug-17 05:32N 37°38' E 023°44'1312.8
2014-Aug-17 04:33N 37°50' E 023°37'7 7.4
2014-Aug-17 03:33N 37°57' E 023°36'0 0.0
2014-Aug-17 02:33N 37°57' E 023°36'0 0.0
2014-Aug-17 01:33N 37°57' E 023°36'0 0.0
2014-Aug-17 00:33N 37°57' E 023°36'0 0.0
2014-Aug-16 23:33N 37°57' E 023°36'0 0.0
2014-Aug-16 22:33N 37°57' E 023°36'0 0.0
2014-Aug-16 21:33N 37°57' E 023°36'3 2.7
2014-Aug-16 20:33N 37°55' E 023°37'1 1.1
2014-Aug-16 19:33N 37°55' E 023°36'2 2.2
2014-Aug-16 18:33N 37°54' E 023°38'7 6.6
2014-Aug-16 17:33N 37°48' E 023°41'7 7.1
2014-Aug-16 16:33N 37°41' E 023°45'7 7.2
2014-Aug-16 15:33N 37°34' E 023°44'8 8.3
2014-Aug-16 14:33N 37°26' E 023°42'1413.7
2014-Aug-16 13:33N 37°13' E 023°38'1413.9
2014-Aug-16 12:33N 36°59' E 023°34'1414.1
2014-Aug-16 11:33N 36°46' E 023°29'1414.1
2014-Aug-16 10:33N 36°32' E 023°23'1313.1
2014-Aug-16 09:33N 36°22' E 023°13'1413.8
2014-Aug-16 08:32N 36°24' E 022°56'38214.2
2014-Aug-15 05:33N 36°29' E 015°01'1514.1
2014-Aug-15 04:29N 36°29' E 014°42'1314.2
2014-Aug-15 03:34N 36°33' E 014°26'1414.3
2014-Aug-15 02:33N 36°37' E 014°09'1414.0
2014-Aug-15 01:33N 36°41' E 013°52'1413.9
2014-Aug-15 00:34N 36°44' E 013°35'1414.2
2014-Aug-14 23:34N 36°48' E 013°18'1414.2
2014-Aug-14 22:34N 36°53' E 013°01'1414.3
2014-Aug-14 21:34N 36°57' E 012°45'1414.0
2014-Aug-14 20:34N 37°00' E 012°27'4214.1
2014-Aug-14 17:33N 37°13' E 011°37'1414.1
2014-Aug-14 16:33N 37°19' E 011°21'1514.2
2014-Aug-14 15:31N 37°24' E 011°03'1614.4
2014-Aug-14 14:23N 37°28' E 010°44'1214.1
2014-Aug-14 13:33N 37°31' E 010°29'6015.1
2014-Aug-14 09:33N 37°45' E 009°15'1615.1
2014-Aug-14 08:30N 37°49' E 008°56'1414.8
2014-Aug-14 07:33N 37°52' E 008°38'1714.5
2014-Aug-14 06:23N 37°56' E 008°18'22614.0
2014-Aug-13 14:12N 38°49' E 003°37'914.6
2014-Aug-13 13:33N 38°52' E 003°25'1414.6
2014-Aug-13 12:33N 38°55' E 003°07'1414.3
2014-Aug-13 11:33N 38°58' E 002°49'1414.2
2014-Aug-13 10:33N 39°01' E 002°31'1414.4
2014-Aug-13 09:33N 39°05' E 002°13'1414.4
2014-Aug-13 08:33N 39°08' E 001°55'2014.5
2014-Aug-13 07:09N 39°13' E 001°29'7114.4
2014-Aug-13 02:14N 39°24' W 000°01'1014.1
2014-Aug-13 01:34N 39°25' W 000°13'5 4.6
2014-Aug-13 00:33N 39°26' W 000°19'0 0.0
2014-Aug-12 23:33N 39°26' W 000°19'0 0.0
2014-Aug-12 22:34N 39°26' W 000°19'0 0.0
2014-Aug-12 21:34N 39°26' W 000°19'0 0.0
2014-Aug-12 20:34N 39°26' W 000°19'0 0.0
2014-Aug-12 19:33N 39°26' W 000°19'0 0.0
2014-Aug-12 18:33N 39°26' W 000°19'0 0.0
2014-Aug-12 17:33N 39°26' W 000°19'0 0.0
2014-Aug-12 16:33N 39°26' W 000°19'0 0.0
2014-Aug-12 15:33N 39°26' W 000°19'0 0.0
2014-Aug-12 14:14N 39°26' W 000°19'0 0.0
2014-Aug-12 13:33N 39°26' W 000°19'0 0.0
2014-Aug-12 12:33N 39°26' W 000°19'0 0.0
2014-Aug-12 11:33N 39°26' W 000°19'2 1.6
2014-Aug-12 10:33N 39°25' W 000°17'4513.5
2014-Aug-12 07:15N 38°51' E 000°20'2011.1
2014-Aug-12 05:26N 38°31' E 000°19'2513.1
2014-Aug-12 03:33N 38°11' E 000°01'1414.0
2014-Aug-12 02:32N 37°59' W 000°09'1414.0
2014-Aug-12 01:31N 37°47' W 000°19'1314.0
2014-Aug-12 00:33N 37°36' W 000°29'1414.2
2014-Aug-11 23:33N 37°26' W 000°41'1414.4
2014-Aug-11 22:33N 37°16' W 000°54'1514.7
2014-Aug-11 21:34N 37°06' W 001°07'1514.9
2014-Aug-11 20:33N 36°56' W 001°21'1514.7
2014-Aug-11 19:32N 36°46' W 001°35'1515.1
2014-Aug-11 18:33N 36°36' W 001°49'1515.2
2014-Aug-11 17:32N 36°26' W 002°04'16516.3
2014-Aug-11 07:26N 35°58' W 005°25'16416.0
2014-Aug-10 21:12N 36°27' W 008°45'1016.2
2014-Aug-10 20:33N 36°30' W 008°57'1616.3
2014-Aug-10 19:33N 36°35' W 009°17'  

Dump ship's entire track history